sensor_id;sensor_type;location;lat;lon;timestamp;pressure;altitude;pressure_sealevel;temperature;humidity
55801;BME280;41730;51.960;20.158;2023-04-27T00:00:56;100222.23;;;6.18;52.57
55801;BME280;41730;51.960;20.158;2023-04-27T00:03:28;100230.52;;;6.08;52.76
55801;BME280;41730;51.960;20.158;2023-04-27T00:06:00;100224.96;;;6.08;52.84
55801;BME280;41730;51.960;20.158;2023-04-27T00:08:32;100226.64;;;6.11;52.70
55801;BME280;41730;51.960;20.158;2023-04-27T00:11:04;100226.13;;;6.14;52.74
55801;BME280;41730;51.960;20.158;2023-04-27T00:13:36;100223.39;;;6.19;52.69
55801;BME280;41730;51.960;20.158;2023-04-27T00:16:07;100226.56;;;6.05;52.85
55801;BME280;41730;51.960;20.158;2023-04-27T00:18:39;100227.35;;;5.86;53.19
55801;BME280;41730;51.960;20.158;2023-04-27T00:21:11;100223.73;;;5.69;53.67
55801;BME280;41730;51.960;20.158;2023-04-27T00:23:42;100226.05;;;5.73;53.67
55801;BME280;41730;51.960;20.158;2023-04-27T00:26:14;100227.63;;;5.85;53.48
55801;BME280;41730;51.960;20.158;2023-04-27T00:28:46;100232.48;;;5.85;53.23
55801;BME280;41730;51.960;20.158;2023-04-27T00:31:18;100231.46;;;5.65;53.66
55801;BME280;41730;51.960;20.158;2023-04-27T00:33:50;100231.29;;;5.45;54.06
55801;BME280;41730;51.960;20.158;2023-04-27T00:36:21;100235.61;;;5.34;54.42
55801;BME280;41730;51.960;20.158;2023-04-27T00:38:53;100234.17;;;5.23;54.59
55801;BME280;41730;51.960;20.158;2023-04-27T00:41:25;100238.91;;;5.14;54.98
55801;BME280;41730;51.960;20.158;2023-04-27T00:43:56;100240.90;;;5.12;54.86
55801;BME280;41730;51.960;20.158;2023-04-27T00:46:27;100242.75;;;5.02;54.98
55801;BME280;41730;51.960;20.158;2023-04-27T00:48:59;100245.00;;;4.90;55.29
55801;BME280;41730;51.960;20.158;2023-04-27T00:51:31;100245.01;;;4.84;55.54
55801;BME280;41730;51.960;20.158;2023-04-27T00:54:03;100247.98;;;4.83;55.61
55801;BME280;41730;51.960;20.158;2023-04-27T00:56:35;100243.77;;;4.84;55.40
55801;BME280;41730;51.960;20.158;2023-04-27T00:59:07;100248.77;;;4.88;55.47
55801;BME280;41730;51.960;20.158;2023-04-27T01:01:38;100246.38;;;4.81;55.52
55801;BME280;41730;51.960;20.158;2023-04-27T01:04:10;100245.42;;;4.83;55.49
55801;BME280;41730;51.960;20.158;2023-04-27T01:06:42;100250.98;;;4.92;55.35
55801;BME280;41730;51.960;20.158;2023-04-27T01:09:14;100248.71;;;4.89;55.43
55801;BME280;41730;51.960;20.158;2023-04-27T01:11:48;100246.77;;;4.92;55.43
55801;BME280;41730;51.960;20.158;2023-04-27T01:14:19;100245.70;;;4.87;55.32
55801;BME280;41730;51.960;20.158;2023-04-27T01:16:51;100250.33;;;4.88;55.65
55801;BME280;41730;51.960;20.158;2023-04-27T01:19:23;100248.72;;;4.89;55.59
55801;BME280;41730;51.960;20.158;2023-04-27T01:21:54;100248.91;;;4.77;55.72
55801;BME280;41730;51.960;20.158;2023-04-27T01:24:26;100253.44;;;4.73;55.83
55801;BME280;41730;51.960;20.158;2023-04-27T01:26:57;100249.70;;;4.90;55.51
55801;BME280;41730;51.960;20.158;2023-04-27T01:29:28;100252.06;;;4.82;55.69
55801;BME280;41730;51.960;20.158;2023-04-27T01:32:00;100250.16;;;4.76;55.70
55801;BME280;41730;51.960;20.158;2023-04-27T01:34:31;100255.77;;;4.75;55.99
55801;BME280;41730;51.960;20.158;2023-04-27T01:37:02;100253.09;;;4.79;55.94
55801;BME280;41730;51.960;20.158;2023-04-27T01:39:34;100251.27;;;4.78;55.98
55801;BME280;41730;51.960;20.158;2023-04-27T01:42:06;100250.92;;;4.84;55.79
55801;BME280;41730;51.960;20.158;2023-04-27T01:44:38;100249.58;;;4.86;55.66
55801;BME280;41730;51.960;20.158;2023-04-27T01:47:09;100248.73;;;4.77;55.83
55801;BME280;41730;51.960;20.158;2023-04-27T01:49:41;100253.48;;;4.87;55.74
55801;BME280;41730;51.960;20.158;2023-04-27T01:52:12;100250.64;;;4.92;55.67
55801;BME280;41730;51.960;20.158;2023-04-27T01:54:43;100258.03;;;5.08;55.27
55801;BME280;41730;51.960;20.158;2023-04-27T01:57:15;100257.06;;;4.98;55.48
55801;BME280;41730;51.960;20.158;2023-04-27T01:59:46;100259.30;;;4.86;55.83
55801;BME280;41730;51.960;20.158;2023-04-27T02:02:18;100261.19;;;4.74;56.19
55801;BME280;41730;51.960;20.158;2023-04-27T02:04:49;100262.77;;;4.74;56.30
55801;BME280;41730;51.960;20.158;2023-04-27T02:07:21;100265.33;;;4.69;56.35
55801;BME280;41730;51.960;20.158;2023-04-27T02:09:52;100263.38;;;4.78;56.20
55801;BME280;41730;51.960;20.158;2023-04-27T02:12:23;100260.55;;;4.91;55.93
55801;BME280;41730;51.960;20.158;2023-04-27T02:14:55;100260.09;;;4.81;56.18
55801;BME280;41730;51.960;20.158;2023-04-27T02:17:26;100263.47;;;4.77;56.25
55801;BME280;41730;51.960;20.158;2023-04-27T02:19:58;100265.50;;;4.84;56.28
55801;BME280;41730;51.960;20.158;2023-04-27T02:22:29;100261.21;;;4.80;56.11
55801;BME280;41730;51.960;20.158;2023-04-27T02:25:01;100263.88;;;4.82;56.07
55801;BME280;41730;51.960;20.158;2023-04-27T02:27:33;100265.20;;;4.65;56.58
55801;BME280;41730;51.960;20.158;2023-04-27T02:30:09;100264.61;;;4.48;56.91
55801;BME280;41730;51.960;20.158;2023-04-27T02:32:42;100263.11;;;4.41;56.98
55801;BME280;41730;51.960;20.158;2023-04-27T02:35:13;100267.57;;;4.48;57.00
55801;BME280;41730;51.960;20.158;2023-04-27T02:37:45;100264.27;;;4.72;56.31
55801;BME280;41730;51.960;20.158;2023-04-27T02:40:16;100260.88;;;4.80;56.02
55801;BME280;41730;51.960;20.158;2023-04-27T02:42:48;100263.96;;;4.77;56.01
55801;BME280;41730;51.960;20.158;2023-04-27T02:45:19;100264.77;;;4.66;56.31
55801;BME280;41730;51.960;20.158;2023-04-27T02:47:52;100266.46;;;4.61;56.53
55801;BME280;41730;51.960;20.158;2023-04-27T02:50:23;100264.71;;;4.65;56.28
55801;BME280;41730;51.960;20.158;2023-04-27T02:52:55;100264.93;;;4.70;56.30
55801;BME280;41730;51.960;20.158;2023-04-27T02:55:26;100270.84;;;4.58;56.41
55801;BME280;41730;51.960;20.158;2023-04-27T02:57:58;100270.34;;;4.51;56.75
55801;BME280;41730;51.960;20.158;2023-04-27T03:00:30;100270.37;;;4.44;56.61
55801;BME280;41730;51.960;20.158;2023-04-27T03:03:01;100269.77;;;4.30;57.04
55801;BME280;41730;51.960;20.158;2023-04-27T03:05:33;100272.34;;;4.31;57.05
55801;BME280;41730;51.960;20.158;2023-04-27T03:08:06;100273.15;;;4.19;57.29
55801;BME280;41730;51.960;20.158;2023-04-27T03:10:37;100278.30;;;4.29;57.18
55801;BME280;41730;51.960;20.158;2023-04-27T03:13:08;100279.05;;;4.38;56.98
55801;BME280;41730;51.960;20.158;2023-04-27T03:15:39;100279.98;;;4.30;56.85
55801;BME280;41730;51.960;20.158;2023-04-27T03:18:11;100281.37;;;4.15;57.24
55801;BME280;41730;51.960;20.158;2023-04-27T03:20:42;100280.41;;;4.23;57.18
55801;BME280;41730;51.960;20.158;2023-04-27T03:23:14;100284.31;;;4.31;56.94
55801;BME280;41730;51.960;20.158;2023-04-27T03:25:45;100285.36;;;4.31;57.07
55801;BME280;41730;51.960;20.158;2023-04-27T03:28:18;100283.92;;;4.32;56.92
55801;BME280;41730;51.960;20.158;2023-04-27T03:30:49;100286.35;;;4.22;57.31
55801;BME280;41730;51.960;20.158;2023-04-27T03:33:20;100292.89;;;4.11;57.63
55801;BME280;41730;51.960;20.158;2023-04-27T03:35:56;100293.94;;;4.07;57.89
55801;BME280;41730;51.960;20.158;2023-04-27T03:38:28;100297.73;;;4.20;58.01
55801;BME280;41730;51.960;20.158;2023-04-27T03:40:59;100296.23;;;4.47;57.69
55801;BME280;41730;51.960;20.158;2023-04-27T03:43:31;100297.92;;;4.61;57.56
55801;BME280;41730;51.960;20.158;2023-04-27T03:46:02;100298.39;;;4.71;57.60
55801;BME280;41730;51.960;20.158;2023-04-27T03:48:37;100297.02;;;4.79;58.03
55801;BME280;41730;51.960;20.158;2023-04-27T03:51:18;100295.25;;;5.04;58.00
55801;BME280;41730;51.960;20.158;2023-04-27T03:53:58;100295.86;;;5.23;58.09
55801;BME280;41730;51.960;20.158;2023-04-27T03:56:38;100295.71;;;5.56;58.34
55801;BME280;41730;51.960;20.158;2023-04-27T03:59:20;100297.41;;;6.15;58.27
55801;BME280;41730;51.960;20.158;2023-04-27T04:02:04;100303.83;;;6.68;58.05
55801;BME280;41730;51.960;20.158;2023-04-27T04:04:44;100302.23;;;7.24;57.84
55801;BME280;41730;51.960;20.158;2023-04-27T04:07:18;100297.14;;;7.63;57.91
55801;BME280;41730;51.960;20.158;2023-04-27T04:09:49;100298.02;;;7.90;58.01
55801;BME280;41730;51.960;20.158;2023-04-27T04:12:21;100299.36;;;8.38;57.83
55801;BME280;41730;51.960;20.158;2023-04-27T04:14:52;100302.39;;;8.78;57.67
55801;BME280;41730;51.960;20.158;2023-04-27T04:17:23;100303.61;;;9.02;57.46
55801;BME280;41730;51.960;20.158;2023-04-27T04:19:55;100303.45;;;9.46;57.22
55801;BME280;41730;51.960;20.158;2023-04-27T04:22:27;100304.84;;;9.69;56.93
55801;BME280;41730;51.960;20.158;2023-04-27T04:24:58;100310.42;;;9.91;56.73
55801;BME280;41730;51.960;20.158;2023-04-27T04:27:29;100311.58;;;10.28;56.46
55801;BME280;41730;51.960;20.158;2023-04-27T04:30:02;100314.99;;;10.73;55.68
55801;BME280;41730;51.960;20.158;2023-04-27T04:32:36;100318.05;;;11.04;55.38
55801;BME280;41730;51.960;20.158;2023-04-27T04:35:08;100313.95;;;11.32;54.87
55801;BME280;41730;51.960;20.158;2023-04-27T04:37:40;100309.83;;;11.87;54.15
55801;BME280;41730;51.960;20.158;2023-04-27T04:40:14;100312.95;;;12.38;52.86
55801;BME280;41730;51.960;20.158;2023-04-27T04:42:46;100311.88;;;12.56;52.68
55801;BME280;41730;51.960;20.158;2023-04-27T04:45:17;100312.14;;;12.67;52.27
55801;BME280;41730;51.960;20.158;2023-04-27T04:47:49;100316.61;;;12.87;52.07
55801;BME280;41730;51.960;20.158;2023-04-27T04:50:20;100316.02;;;12.98;51.60
55801;BME280;41730;51.960;20.158;2023-04-27T04:52:52;100317.08;;;13.27;51.43
55801;BME280;41730;51.960;20.158;2023-04-27T04:55:26;100317.66;;;13.45;50.53
55801;BME280;41730;51.960;20.158;2023-04-27T04:57:58;100318.16;;;13.70;50.14
55801;BME280;41730;51.960;20.158;2023-04-27T05:00:30;100314.84;;;13.90;49.95
55801;BME280;41730;51.960;20.158;2023-04-27T05:03:01;100317.30;;;14.16;49.42
55801;BME280;41730;51.960;20.158;2023-04-27T05:05:33;100319.42;;;14.35;48.80
55801;BME280;41730;51.960;20.158;2023-04-27T05:08:06;100320.59;;;14.50;48.25
55801;BME280;41730;51.960;20.158;2023-04-27T05:10:37;100325.08;;;14.60;47.67
55801;BME280;41730;51.960;20.158;2023-04-27T05:13:09;100332.36;;;14.71;47.41
55801;BME280;41730;51.960;20.158;2023-04-27T05:15:40;100330.14;;;14.72;47.06
55801;BME280;41730;51.960;20.158;2023-04-27T05:18:12;100329.09;;;14.70;47.06
55801;BME280;41730;51.960;20.158;2023-04-27T05:20:44;100333.20;;;14.80;46.94
55801;BME280;41730;51.960;20.158;2023-04-27T05:23:15;100329.35;;;14.92;46.72
55801;BME280;41730;51.960;20.158;2023-04-27T05:25:48;100334.00;;;15.17;45.69
55801;BME280;41730;51.960;20.158;2023-04-27T05:28:20;100328.04;;;15.27;44.91
55801;BME280;41730;51.960;20.158;2023-04-27T05:30:51;100331.05;;;15.41;44.48
55801;BME280;41730;51.960;20.158;2023-04-27T05:33:23;100331.04;;;15.62;43.88
55801;BME280;41730;51.960;20.158;2023-04-27T05:35:54;100334.08;;;15.63;43.31
55801;BME280;41730;51.960;20.158;2023-04-27T05:38:26;100333.16;;;15.65;43.27
55801;BME280;41730;51.960;20.158;2023-04-27T05:40:57;100335.87;;;15.67;43.11
55801;BME280;41730;51.960;20.158;2023-04-27T05:43:29;100336.80;;;15.71;42.75
55801;BME280;41730;51.960;20.158;2023-04-27T05:46:00;100340.85;;;15.71;42.52
55801;BME280;41730;51.960;20.158;2023-04-27T05:48:32;100348.38;;;15.51;42.50
55801;BME280;41730;51.960;20.158;2023-04-27T05:51:04;100354.81;;;15.52;41.94
55801;BME280;41730;51.960;20.158;2023-04-27T05:53:35;100356.69;;;15.60;41.64
55801;BME280;41730;51.960;20.158;2023-04-27T05:56:08;100360.71;;;15.42;41.86
55801;BME280;41730;51.960;20.158;2023-04-27T05:58:40;100359.07;;;15.27;42.23
55801;BME280;41730;51.960;20.158;2023-04-27T06:01:12;100361.88;;;15.34;42.19
55801;BME280;41730;51.960;20.158;2023-04-27T06:03:44;100362.18;;;15.40;42.00
55801;BME280;41730;51.960;20.158;2023-04-27T06:06:16;100362.80;;;15.25;41.82
55801;BME280;41730;51.960;20.158;2023-04-27T06:08:48;100362.89;;;15.08;42.26
55801;BME280;41730;51.960;20.158;2023-04-27T06:11:20;100365.78;;;15.17;42.00
55801;BME280;41730;51.960;20.158;2023-04-27T06:13:52;100366.70;;;15.27;41.48
55801;BME280;41730;51.960;20.158;2023-04-27T06:16:24;100364.25;;;15.23;41.04
55801;BME280;41730;51.960;20.158;2023-04-27T06:18:55;100367.19;;;15.17;40.84
55801;BME280;41730;51.960;20.158;2023-04-27T06:21:27;100367.65;;;15.10;41.23
55801;BME280;41730;51.960;20.158;2023-04-27T06:23:58;100365.77;;;15.20;41.17
55801;BME280;41730;51.960;20.158;2023-04-27T06:26:30;100366.70;;;15.36;40.64
55801;BME280;41730;51.960;20.158;2023-04-27T06:29:02;100367.07;;;15.34;40.53
55801;BME280;41730;51.960;20.158;2023-04-27T06:31:33;100370.47;;;15.28;40.70
55801;BME280;41730;51.960;20.158;2023-04-27T06:34:05;100375.73;;;15.27;40.99
55801;BME280;41730;51.960;20.158;2023-04-27T06:36:36;100377.38;;;15.43;41.02
55801;BME280;41730;51.960;20.158;2023-04-27T06:39:08;100367.54;;;15.57;40.72
55801;BME280;41730;51.960;20.158;2023-04-27T06:41:40;100377.88;;;15.61;40.56
55801;BME280;41730;51.960;20.158;2023-04-27T06:44:11;100377.04;;;15.86;40.30
55801;BME280;41730;51.960;20.158;2023-04-27T06:46:43;100381.91;;;16.11;39.95
55801;BME280;41730;51.960;20.158;2023-04-27T06:49:15;100383.40;;;16.05;40.12
55801;BME280;41730;51.960;20.158;2023-04-27T06:51:47;100380.17;;;16.09;40.12
55801;BME280;41730;51.960;20.158;2023-04-27T06:54:18;100380.04;;;16.03;39.74
55801;BME280;41730;51.960;20.158;2023-04-27T06:56:50;100382.77;;;16.04;39.85
55801;BME280;41730;51.960;20.158;2023-04-27T06:59:23;100389.91;;;15.94;39.58
55801;BME280;41730;51.960;20.158;2023-04-27T07:01:55;100386.19;;;15.69;39.64
55801;BME280;41730;51.960;20.158;2023-04-27T07:04:27;100390.80;;;15.52;39.39
55801;BME280;41730;51.960;20.158;2023-04-27T07:06:59;100387.13;;;15.58;39.08
55801;BME280;41730;51.960;20.158;2023-04-27T07:09:30;100389.08;;;15.43;39.08
55801;BME280;41730;51.960;20.158;2023-04-27T07:12:04;100387.90;;;15.29;39.23
55801;BME280;41730;51.960;20.158;2023-04-27T07:14:37;100387.58;;;15.35;39.56
55801;BME280;41730;51.960;20.158;2023-04-27T07:17:08;100388.89;;;15.58;39.46
55801;BME280;41730;51.960;20.158;2023-04-27T07:19:42;100391.23;;;15.77;38.90
55801;BME280;41730;51.960;20.158;2023-04-27T07:22:13;100391.99;;;15.60;38.99
55801;BME280;41730;51.960;20.158;2023-04-27T07:24:45;100392.48;;;15.61;39.28
55801;BME280;41730;51.960;20.158;2023-04-27T07:27:16;100393.31;;;15.77;39.50
55801;BME280;41730;51.960;20.158;2023-04-27T07:29:47;100393.30;;;15.75;39.73
55801;BME280;41730;51.960;20.158;2023-04-27T07:32:19;100390.84;;;15.84;39.73
55801;BME280;41730;51.960;20.158;2023-04-27T07:34:50;100389.94;;;16.06;39.68
55801;BME280;41730;51.960;20.158;2023-04-27T07:37:23;100390.79;;;16.16;39.40
55801;BME280;41730;51.960;20.158;2023-04-27T07:39:55;100392.65;;;16.20;39.01
55801;BME280;41730;51.960;20.158;2023-04-27T07:42:28;100397.77;;;16.18;38.85
55801;BME280;41730;51.960;20.158;2023-04-27T07:45:00;100393.61;;;16.19;38.48
55801;BME280;41730;51.960;20.158;2023-04-27T07:47:31;100392.29;;;15.97;38.41
55801;BME280;41730;51.960;20.158;2023-04-27T07:50:05;100392.43;;;16.01;39.23
55801;BME280;41730;51.960;20.158;2023-04-27T07:52:37;100391.13;;;16.19;39.25
55801;BME280;41730;51.960;20.158;2023-04-27T07:55:10;100390.45;;;16.15;39.09
55801;BME280;41730;51.960;20.158;2023-04-27T07:57:41;100391.23;;;16.15;39.07
55801;BME280;41730;51.960;20.158;2023-04-27T08:00:15;100393.55;;;16.13;38.65
55801;BME280;41730;51.960;20.158;2023-04-27T08:02:47;100396.66;;;16.17;38.54
55801;BME280;41730;51.960;20.158;2023-04-27T08:05:18;100396.23;;;16.09;38.70
55801;BME280;41730;51.960;20.158;2023-04-27T08:07:50;100400.08;;;15.92;38.64
55801;BME280;41730;51.960;20.158;2023-04-27T08:10:24;100400.13;;;15.62;38.49
55801;BME280;41730;51.960;20.158;2023-04-27T08:12:55;100400.52;;;15.24;38.97
55801;BME280;41730;51.960;20.158;2023-04-27T08:15:27;100400.95;;;15.03;39.19
55801;BME280;41730;51.960;20.158;2023-04-27T08:17:58;100406.42;;;14.80;39.64
55801;BME280;41730;51.960;20.158;2023-04-27T08:20:30;100401.88;;;14.63;39.92
55801;BME280;41730;51.960;20.158;2023-04-27T08:23:02;100406.79;;;14.40;40.54
55801;BME280;41730;51.960;20.158;2023-04-27T08:25:33;100411.09;;;14.32;40.59
55801;BME280;41730;51.960;20.158;2023-04-27T08:28:05;100407.46;;;14.31;40.77
55801;BME280;41730;51.960;20.158;2023-04-27T08:30:37;100403.30;;;14.47;40.77
55801;BME280;41730;51.960;20.158;2023-04-27T08:33:08;100412.39;;;14.49;40.76
55801;BME280;41730;51.960;20.158;2023-04-27T08:35:40;100414.36;;;14.53;40.71
55801;BME280;41730;51.960;20.158;2023-04-27T08:38:11;100415.42;;;14.40;40.78
55801;BME280;41730;51.960;20.158;2023-04-27T08:40:46;100419.02;;;14.44;40.77
55801;BME280;41730;51.960;20.158;2023-04-27T08:43:17;100416.61;;;14.40;40.86
55801;BME280;41730;51.960;20.158;2023-04-27T08:45:50;100412.76;;;14.33;40.90
55801;BME280;41730;51.960;20.158;2023-04-27T08:48:21;100416.73;;;14.35;40.84
55801;BME280;41730;51.960;20.158;2023-04-27T08:50:54;100406.04;;;14.68;40.62
55801;BME280;41730;51.960;20.158;2023-04-27T08:53:26;100402.14;;;15.10;40.08
55801;BME280;41730;51.960;20.158;2023-04-27T08:56:00;100407.07;;;15.24;40.01
55801;BME280;41730;51.960;20.158;2023-04-27T08:58:39;100405.65;;;15.53;39.72
55801;BME280;41730;51.960;20.158;2023-04-27T09:01:13;100403.52;;;15.47;38.96
55801;BME280;41730;51.960;20.158;2023-04-27T09:03:44;100408.77;;;15.26;38.95
55801;BME280;41730;51.960;20.158;2023-04-27T09:06:18;100412.17;;;14.92;39.33
55801;BME280;41730;51.960;20.158;2023-04-27T09:09:02;100416.34;;;14.62;39.61
55801;BME280;41730;51.960;20.158;2023-04-27T09:11:37;100419.91;;;14.50;39.66
55801;BME280;41730;51.960;20.158;2023-04-27T09:14:19;100419.16;;;14.24;39.93
55801;BME280;41730;51.960;20.158;2023-04-27T09:16:56;100414.19;;;14.08;40.23
55801;BME280;41730;51.960;20.158;2023-04-27T09:19:30;100417.32;;;14.05;40.45
55801;BME280;41730;51.960;20.158;2023-04-27T09:22:08;100410.48;;;14.10;40.34
55801;BME280;41730;51.960;20.158;2023-04-27T09:24:51;100405.21;;;14.17;40.39
55801;BME280;41730;51.960;20.158;2023-04-27T09:27:24;100400.42;;;14.53;40.12
55801;BME280;41730;51.960;20.158;2023-04-27T09:29:56;100406.00;;;14.81;40.00
55801;BME280;41730;51.960;20.158;2023-04-27T09:32:29;100402.19;;;15.15;39.31
55801;BME280;41730;51.960;20.158;2023-04-27T09:35:03;100400.54;;;15.26;38.93
55801;BME280;41730;51.960;20.158;2023-04-27T09:37:46;100402.77;;;15.20;38.98
55801;BME280;41730;51.960;20.158;2023-04-27T09:40:20;100402.55;;;15.29;38.89
55801;BME280;41730;51.960;20.158;2023-04-27T09:42:57;100399.10;;;15.21;38.86
55801;BME280;41730;51.960;20.158;2023-04-27T09:45:31;100404.27;;;15.17;38.85
55801;BME280;41730;51.960;20.158;2023-04-27T09:48:05;100402.95;;;15.05;38.80
55801;BME280;41730;51.960;20.158;2023-04-27T09:50:40;100398.19;;;14.98;39.24
55801;BME280;41730;51.960;20.158;2023-04-27T09:53:16;100396.58;;;14.96;39.25
55801;BME280;41730;51.960;20.158;2023-04-27T09:56:07;100393.73;;;14.98;39.04
55801;BME280;41730;51.960;20.158;2023-04-27T09:59:01;100396.79;;;15.14;38.66
55801;BME280;41730;51.960;20.158;2023-04-27T10:01:44;100394.14;;;15.30;38.09
55801;BME280;41730;51.960;20.158;2023-04-27T10:04:31;100396.08;;;15.28;38.03
55801;BME280;41730;51.960;20.158;2023-04-27T10:07:08;100393.84;;;15.47;37.93
55801;BME280;41730;51.960;20.158;2023-04-27T10:09:41;100399.42;;;15.44;37.53
55801;BME280;41730;51.960;20.158;2023-04-27T10:12:19;100398.38;;;15.23;37.76
55801;BME280;41730;51.960;20.158;2023-04-27T10:14:55;100399.23;;;14.96;38.05
55801;BME280;41730;51.960;20.158;2023-04-27T10:17:30;100398.02;;;14.89;38.20
55801;BME280;41730;51.960;20.158;2023-04-27T10:20:03;100405.38;;;14.79;38.28
55801;BME280;41730;51.960;20.158;2023-04-27T10:22:40;100404.23;;;14.76;38.36
55801;BME280;41730;51.960;20.158;2023-04-27T10:25:19;100402.42;;;14.71;38.09
55801;BME280;41730;51.960;20.158;2023-04-27T10:27:53;100407.02;;;14.80;37.82
55801;BME280;41730;51.960;20.158;2023-04-27T10:30:30;100404.59;;;14.70;37.76
55801;BME280;41730;51.960;20.158;2023-04-27T10:33:05;100406.19;;;14.63;37.89
55801;BME280;41730;51.960;20.158;2023-04-27T10:35:38;100409.16;;;14.61;38.00
55801;BME280;41730;51.960;20.158;2023-04-27T10:38:14;100413.29;;;14.51;38.13
55801;BME280;41730;51.960;20.158;2023-04-27T10:40:53;100410.94;;;14.33;38.27
55801;BME280;41730;51.960;20.158;2023-04-27T10:43:27;100410.52;;;14.21;38.53
55801;BME280;41730;51.960;20.158;2023-04-27T10:46:10;100412.27;;;14.04;38.61
55801;BME280;41730;51.960;20.158;2023-04-27T10:48:43;100416.85;;;14.00;38.79
55801;BME280;41730;51.960;20.158;2023-04-27T10:51:17;100417.70;;;14.05;38.75
55801;BME280;41730;51.960;20.158;2023-04-27T10:53:52;100414.22;;;13.98;38.78
55801;BME280;41730;51.960;20.158;2023-04-27T10:56:24;100414.83;;;14.03;38.67
55801;BME280;41730;51.960;20.158;2023-04-27T10:58:56;100415.15;;;13.94;38.67
55801;BME280;41730;51.960;20.158;2023-04-27T11:01:32;100413.10;;;13.80;38.51
55801;BME280;41730;51.960;20.158;2023-04-27T11:04:04;100410.48;;;13.89;38.45
55801;BME280;41730;51.960;20.158;2023-04-27T11:06:42;100415.67;;;13.84;38.21
55801;BME280;41730;51.960;20.158;2023-04-27T11:09:26;100415.77;;;13.83;38.48
55801;BME280;41730;51.960;20.158;2023-04-27T11:11:57;100410.98;;;14.08;38.15
55801;BME280;41730;51.960;20.158;2023-04-27T11:14:30;100406.91;;;14.25;37.55
55801;BME280;41730;51.960;20.158;2023-04-27T11:17:03;100414.27;;;14.32;37.23
55801;BME280;41730;51.960;20.158;2023-04-27T11:19:44;100413.78;;;14.27;37.26
55801;BME280;41730;51.960;20.158;2023-04-27T11:22:17;100412.94;;;14.31;37.39
55801;BME280;41730;51.960;20.158;2023-04-27T11:24:51;100414.29;;;14.52;37.12
55801;BME280;41730;51.960;20.158;2023-04-27T11:27:34;100411.73;;;14.73;36.51
55801;BME280;41730;51.960;20.158;2023-04-27T11:30:20;100409.75;;;14.58;35.78
55801;BME280;41730;51.960;20.158;2023-04-27T11:32:53;100406.69;;;14.29;36.12
55801;BME280;41730;51.960;20.158;2023-04-27T11:35:34;100406.19;;;14.16;36.60
55801;BME280;41730;51.960;20.158;2023-04-27T11:38:16;100409.61;;;14.21;36.87
55801;BME280;41730;51.960;20.158;2023-04-27T11:41:00;100404.41;;;14.16;36.68
55801;BME280;41730;51.960;20.158;2023-04-27T11:43:38;100407.29;;;14.14;36.56
55801;BME280;41730;51.960;20.158;2023-04-27T11:46:12;100403.08;;;14.21;37.07
55801;BME280;41730;51.960;20.158;2023-04-27T11:48:45;100406.98;;;14.13;37.34
55801;BME280;41730;51.960;20.158;2023-04-27T11:51:17;100409.38;;;14.27;37.37
55801;BME280;41730;51.960;20.158;2023-04-27T11:53:50;100409.52;;;14.41;36.80
55801;BME280;41730;51.960;20.158;2023-04-27T11:56:22;100416.44;;;14.25;36.83
55801;BME280;41730;51.960;20.158;2023-04-27T11:58:57;100416.77;;;14.07;36.45
55801;BME280;41730;51.960;20.158;2023-04-27T12:01:31;100423.06;;;13.79;36.85
55801;BME280;41730;51.960;20.158;2023-04-27T12:04:07;100427.35;;;13.63;36.96
55801;BME280;41730;51.960;20.158;2023-04-27T12:06:40;100425.56;;;13.52;36.75
55801;BME280;41730;51.960;20.158;2023-04-27T12:09:14;100428.22;;;13.22;37.34
55801;BME280;41730;51.960;20.158;2023-04-27T12:11:49;100429.73;;;13.08;37.47
55801;BME280;41730;51.960;20.158;2023-04-27T12:14:21;100425.04;;;13.05;37.41
55801;BME280;41730;51.960;20.158;2023-04-27T12:16:54;100427.98;;;12.89;37.76
55801;BME280;41730;51.960;20.158;2023-04-27T12:19:27;100425.52;;;13.03;37.70
55801;BME280;41730;51.960;20.158;2023-04-27T12:22:01;100426.70;;;13.10;37.85
55801;BME280;41730;51.960;20.158;2023-04-27T12:24:33;100428.34;;;13.33;37.99
55801;BME280;41730;51.960;20.158;2023-04-27T12:27:06;100429.20;;;13.55;37.80
55801;BME280;41730;51.960;20.158;2023-04-27T12:29:39;100423.48;;;13.59;37.30
55801;BME280;41730;51.960;20.158;2023-04-27T12:32:12;100426.89;;;13.51;37.31
55801;BME280;41730;51.960;20.158;2023-04-27T12:34:46;100426.98;;;13.48;37.65
55801;BME280;41730;51.960;20.158;2023-04-27T12:37:19;100424.85;;;13.60;37.58
55801;BME280;41730;51.960;20.158;2023-04-27T12:39:55;100424.20;;;13.69;37.25
55801;BME280;41730;51.960;20.158;2023-04-27T12:42:27;100429.52;;;13.78;37.17
55801;BME280;41730;51.960;20.158;2023-04-27T12:44:59;100429.75;;;13.70;37.32
55801;BME280;41730;51.960;20.158;2023-04-27T12:47:33;100427.12;;;13.67;37.03
55801;BME280;41730;51.960;20.158;2023-04-27T12:50:09;100426.51;;;13.70;37.21
55801;BME280;41730;51.960;20.158;2023-04-27T12:52:41;100434.58;;;13.65;37.15
55801;BME280;41730;51.960;20.158;2023-04-27T12:55:16;100433.77;;;13.60;37.29
55801;BME280;41730;51.960;20.158;2023-04-27T12:58:02;100438.00;;;13.66;37.30
55801;BME280;41730;51.960;20.158;2023-04-27T13:00:36;100438.40;;;13.69;37.33
55801;BME280;41730;51.960;20.158;2023-04-27T13:03:11;100434.93;;;13.67;37.34
55801;BME280;41730;51.960;20.158;2023-04-27T13:05:44;100436.80;;;13.58;37.57
55801;BME280;41730;51.960;20.158;2023-04-27T13:08:17;100443.40;;;13.59;37.81
55801;BME280;41730;51.960;20.158;2023-04-27T13:10:51;100438.90;;;13.77;37.73
55801;BME280;41730;51.960;20.158;2023-04-27T13:13:24;100430.27;;;14.00;36.89